• Join FlightAware (Why Join?)
  • Login
  • US Flag 
08:26AM EDT


 

Airport Tracker/Info


-or-


 

Live Flight TrackerFlight Track Log ✈ AWE3287 ✈ 30-Jun-2013 ✈ KDTW - KPHL

Flight Track Log - Related Links

Times and Time Zones

All times are in EDT time to prevent confusion due to time zone crossing. See the AWE3287 flight status page for this flight to view local times or setup timezone preferences in your user account.

Time Position Orientation Groundspeed Altitude Reporting Facility
EDT Latitude Longitude Course Direction KTS MPH feet Rate Location/Type
02:00PM 42.2292 -83.3342 90° East 142 163 1,300  Level Cleveland Center
02:01PM 42.2736 -83.3053 26° Northeast 208 239 2,900 2,040 Climbing Cleveland Center
02:02PM 42.2167 -82.9238 90° East  Level FlightAware Approximate
02:02PM 42.3044 -83.2364 59° Northeast 257 296 5,500  Level Cleveland Center
02:03PM 42.2167 -82.7801 90° East  Level FlightAware Approximate
02:03PM 42.2708 -83.1536 119° Southeast 266 306 8,700  Level Cleveland Center
02:04PM 42.2167 -82.6364 90° East  Level FlightAware Approximate
02:04PM 42.2542 -83.0603 104° East 298 343 10,700  Level Cleveland Center
02:05PM 42.2167 -82.4927 90° East  Level FlightAware Approximate
02:05PM 42.2483 -82.9450 94° East 313 360 12,900  Level Cleveland Center
02:06PM 42.2425 -82.8242 94° East 318 366 15,300 2,400 Climbing Cleveland Center
02:07PM 42.2364 -82.6950 94° East 329 379 17,700 2,220 Climbing Cleveland Center
02:08PM 42.2306 -82.5658 93° East 339 390 19,800 2,100 Climbing Cleveland Center
02:09PM 42.2203 -82.4308 96° East 350 403 21,900 1,800 Climbing Cleveland Center
02:10PM 42.2119 -82.2906 95° East 361 415 23,500 1,560 Climbing Cleveland Center
02:12PM 42.1889 -81.9844 96° East 386 444 26,600 1,560 Climbing Cleveland Center
02:13PM 42.1278 -81.8625 124° Southeast 386 444 28,200 1,560 Climbing Cleveland Center
02:14PM 42.0456 -81.7686 140° Southeast 379 436 29,800 1,380 Climbing Cleveland Center
02:15PM 41.9631 -81.6778 141° Southeast 389 448 31,000 300 Climbing Cleveland Center
02:17PM 41.8234 -81.5162 139° Southeast  Level FlightAware Approximate
02:18PM 41.7278 -81.4067 139° Southeast 389 448 31,000  Level Cleveland Center
02:19PM 41.6492 -81.3139 139° Southeast 379 436 31,000  Level Cleveland Center
02:20PM 41.5706 -81.2269 140° Southeast 372 428 31,000  Level Cleveland Center
02:21PM 41.4958 -81.1375 138° Southeast 372 428 31,000  Level Cleveland Center
02:22PM 41.4339 -81.0208 125° Southeast 372 428 31,000  Level Cleveland Center
02:23PM 41.3656 -80.8847 124° Southeast 391 450 31,000  Level Cleveland Center
02:24PM 41.3053 -80.7683 125° Southeast 400 460 31,000  Level Cleveland Center
02:25PM 41.2450 -80.6439 123° Southeast 400 460 31,000  Level Cleveland Center
02:26PM 41.1844 -80.5225 124° Southeast 395 455 31,000  Level Cleveland Center
02:27PM 41.1322 -80.4233 125° Southeast 395 455 31,000  Level Cleveland Center
02:28PM 41.0675 -80.2858 122° Southeast 395 455 31,000  Level Cleveland Center
02:29PM 41.0003 -80.1786 130° Southeast 388 447 31,000  Level Cleveland Center
02:30PM 40.9292 -80.0775 133° Southeast 383 441 31,000  Level Cleveland Center
02:31PM 40.8556 -79.9792 135° Southeast 372 428 31,000  Level Cleveland Center
02:32PM 40.7842 -79.8783 133° Southeast 372 428 31,000  Level Cleveland Center
02:33PM 40.7272 -79.7583 122° Southeast 377 434 31,000  Level Cleveland Center
02:34PM 40.6781 -79.6222 115° Southeast 388 447 31,000  Level Cleveland Center
02:35PM 40.6250 -79.5025 120° Southeast 394 453 31,000  Level Cleveland Center
02:36PM 40.5717 -79.3803 120° Southeast 389 448 31,000  Level Cleveland Center
02:37PM 40.5386 -79.2225 105° East 394 453 31,000  Level Cleveland Center
02:38PM 40.5117 -79.0728 103° East 404 465 31,000  Level Cleveland Center
02:39PM 40.4844 -78.9261 104° East 415 478 31,000  Level Cleveland Center
02:40PM 40.4614 -78.7792 102° East 415 478 31,000  Level Cleveland Center
02:41PM 40.4319 -78.6300 104° East 410 472 31,000  Level Cleveland Center
02:42PM 40.4064 -78.4836 103° East 410 472 31,000 -420 Level Cleveland Center
02:43PM 40.3786 -78.3317 103° East 410 472 30,200 -1,680 Descending Cleveland Center
02:45PM 40.3317 -78.0742 103° East 410 472 26,300 -1,920 Descending New York Center
02:46PM 40.3114 -77.9275 100° East 405 466 25,000 -720 Descending New York Center
02:47PM 40.2928 -77.7867 100° East 393 452 25,000 -600 Level New York Center
02:48PM 40.2656 -77.6481 104° East 393 452 23,900 -1,440 Descending New York Center
02:49PM 40.2528 -77.5081 97° East 393 452 22,100 -1,800 Descending New York Center
02:50PM 40.2408 -77.3844 97° East 383 441 20,400 -1,740 Descending New York Center
02:51PM 40.2239 -77.2414 99° East 378 435 18,600 -1,740 Descending New York Center
02:52PM 40.2114 -77.1258 98° East 365 420 17,000 -840 Descending New York Center
02:53PM 40.1975 -76.9917 98° East 347 399 17,000  Level New York Center
02:54PM 40.1850 -76.8736 98° East 352 405 17,000 -900 Level New York Center
02:55PM 40.1711 -76.7392 98° East 352 405 15,300 -1,740 Descending New York Center
02:56PM 40.1581 -76.6211 98° East 336 387 13,600 -900 Descending New York Center
02:57PM 40.1333 -76.4333 100° East 320 368 13,000 -300 Descending Philadelphia TRACON
02:58PM 40.1333 -76.3333 90° East 324 373 13,000  Level Philadelphia TRACON
02:59PM 40.1167 -76.2000 99° East 330 380 13,000 -240 Level Philadelphia TRACON
03:00PM 40.1000 -76.0667 99° East 328 377 12,600 -1,260 Descending Philadelphia TRACON
03:02PM 40.0833 -75.8333 95° East 313 360 9,100 -1,620 Descending Philadelphia TRACON
03:04PM 40.0444 -75.7383 118° Southeast 272 313 7,200 -1,440 Descending New York Center
03:05PM 39.9697 -75.6789 149° Southeast 267 307 6,000 -1,020 Descending New York Center
03:06PM 39.9111 -75.6369 151° Southeast 272 313 5,200 -1,260 Descending New York Center
03:06PM 39.8667 -75.6000 147° Southeast 271 312 3,900 -1,440 Descending Philadelphia TRACON
03:07PM 39.8333 -75.5167 117° Southeast 253 291 2,800 -780 Descending Philadelphia TRACON
03:08PM 39.8333 -75.4333 90° East 197 227 2,400 -420 Descending Philadelphia TRACON